Terminal Aerodrome Forecast
Issued by NWS

Home | Current Version | Previous Version | Text Only | Print | Product List | Glossary On
Versions: 1 2 3 4 5 6 7 8 9 10 11 12 13 14
000
FTUS45 KABQ 291100 RRA
TAFSAF
TAF
KSAF 291143Z 2912/3012 03008KT P6SM BKN100
     FM291500 12012KT P6SM SCT060 BKN100
     FM291800 12015G25KT P6SM SCT060 BKN080
     FM300300 13015G25KT P6SM VCSH BKN035 OVC060=

USA.gov is the U.S. government's official web portal to all federal, state and local government web resources and services.